sensor_id;sensor_type;location;lat;lon;timestamp;P1;durP1;ratioP1;P2;durP2;ratioP2
67757;SDS011;54562;47.620;18.786;2023-06-01T00:00:19;9.10;;;3.90;;
67757;SDS011;54562;47.620;18.786;2023-06-01T00:03:25;8.70;;;4.40;;
67757;SDS011;54562;47.620;18.786;2023-06-01T00:06:33;8.10;;;4.20;;
67757;SDS011;54562;47.620;18.786;2023-06-01T00:09:39;8.10;;;4.30;;
67757;SDS011;54562;47.620;18.786;2023-06-01T00:12:45;12.30;;;4.20;;
67757;SDS011;54562;47.620;18.786;2023-06-01T00:15:52;8.80;;;3.90;;
67757;SDS011;54562;47.620;18.786;2023-06-01T00:18:58;8.10;;;4.10;;
67757;SDS011;54562;47.620;18.786;2023-06-01T00:22:05;10.20;;;4.00;;
67757;SDS011;54562;47.620;18.786;2023-06-01T00:25:12;9.90;;;4.30;;
67757;SDS011;54562;47.620;18.786;2023-06-01T00:28:19;8.00;;;4.00;;
67757;SDS011;54562;47.620;18.786;2023-06-01T00:31:25;10.10;;;4.30;;
67757;SDS011;54562;47.620;18.786;2023-06-01T00:34:31;9.10;;;4.40;;
67757;SDS011;54562;47.620;18.786;2023-06-01T00:37:37;8.60;;;4.50;;
67757;SDS011;54562;47.620;18.786;2023-06-01T00:40:44;7.40;;;4.30;;
67757;SDS011;54562;47.620;18.786;2023-06-01T00:43:53;11.40;;;4.60;;
67757;SDS011;54562;47.620;18.786;2023-06-01T00:46:59;8.40;;;4.00;;
67757;SDS011;54562;47.620;18.786;2023-06-01T00:50:06;11.40;;;4.30;;
67757;SDS011;54562;47.620;18.786;2023-06-01T00:53:15;7.70;;;4.10;;
67757;SDS011;54562;47.620;18.786;2023-06-01T00:56:22;9.00;;;4.20;;
67757;SDS011;54562;47.620;18.786;2023-06-01T00:59:29;7.90;;;4.40;;
67757;SDS011;54562;47.620;18.786;2023-06-01T01:02:36;8.20;;;4.20;;
67757;SDS011;54562;47.620;18.786;2023-06-01T01:05:43;7.80;;;4.10;;
67757;SDS011;54562;47.620;18.786;2023-06-01T01:08:54;8.70;;;4.40;;
67757;SDS011;54562;47.620;18.786;2023-06-01T01:12:12;7.80;;;4.20;;
67757;SDS011;54562;47.620;18.786;2023-06-01T01:15:23;8.30;;;4.40;;
67757;SDS011;54562;47.620;18.786;2023-06-01T01:18:35;8.90;;;4.20;;
67757;SDS011;54562;47.620;18.786;2023-06-01T01:21:46;10.80;;;4.30;;
67757;SDS011;54562;47.620;18.786;2023-06-01T01:25:04;10.50;;;4.10;;
67757;SDS011;54562;47.620;18.786;2023-06-01T01:28:26;7.40;;;4.30;;
67757;SDS011;54562;47.620;18.786;2023-06-01T01:31:39;7.80;;;4.10;;
67757;SDS011;54562;47.620;18.786;2023-06-01T01:34:46;8.70;;;3.70;;
67757;SDS011;54562;47.620;18.786;2023-06-01T01:37:54;7.60;;;3.70;;
67757;SDS011;54562;47.620;18.786;2023-06-01T01:41:00;9.40;;;4.00;;
67757;SDS011;54562;47.620;18.786;2023-06-01T01:44:07;7.20;;;3.70;;
67757;SDS011;54562;47.620;18.786;2023-06-01T01:47:15;7.40;;;3.50;;
67757;SDS011;54562;47.620;18.786;2023-06-01T01:50:27;8.30;;;3.80;;
67757;SDS011;54562;47.620;18.786;2023-06-01T01:53:49;8.60;;;3.70;;
67757;SDS011;54562;47.620;18.786;2023-06-01T01:56:57;7.60;;;4.00;;
67757;SDS011;54562;47.620;18.786;2023-06-01T02:00:04;9.10;;;3.70;;
67757;SDS011;54562;47.620;18.786;2023-06-01T02:03:15;7.80;;;3.40;;
67757;SDS011;54562;47.620;18.786;2023-06-01T02:06:22;10.60;;;3.60;;
67757;SDS011;54562;47.620;18.786;2023-06-01T02:09:28;8.50;;;3.60;;
67757;SDS011;54562;47.620;18.786;2023-06-01T02:12:34;8.80;;;3.70;;
67757;SDS011;54562;47.620;18.786;2023-06-01T02:15:41;6.80;;;3.70;;
67757;SDS011;54562;47.620;18.786;2023-06-01T02:18:47;7.70;;;3.50;;
67757;SDS011;54562;47.620;18.786;2023-06-01T02:21:53;7.80;;;3.90;;
67757;SDS011;54562;47.620;18.786;2023-06-01T02:25:00;9.40;;;4.00;;
67757;SDS011;54562;47.620;18.786;2023-06-01T02:28:08;7.90;;;3.40;;
67757;SDS011;54562;47.620;18.786;2023-06-01T02:31:14;8.10;;;4.10;;
67757;SDS011;54562;47.620;18.786;2023-06-01T02:34:21;10.90;;;3.70;;
67757;SDS011;54562;47.620;18.786;2023-06-01T02:37:27;8.40;;;4.20;;
67757;SDS011;54562;47.620;18.786;2023-06-01T02:40:34;8.30;;;3.70;;
67757;SDS011;54562;47.620;18.786;2023-06-01T02:43:40;7.30;;;3.60;;
67757;SDS011;54562;47.620;18.786;2023-06-01T02:46:46;7.30;;;3.00;;
67757;SDS011;54562;47.620;18.786;2023-06-01T02:49:53;7.30;;;3.10;;
67757;SDS011;54562;47.620;18.786;2023-06-01T02:52:59;7.90;;;3.40;;
67757;SDS011;54562;47.620;18.786;2023-06-01T02:56:06;7.70;;;3.20;;
67757;SDS011;54562;47.620;18.786;2023-06-01T02:59:13;7.60;;;3.30;;
67757;SDS011;54562;47.620;18.786;2023-06-01T03:02:19;6.50;;;3.40;;
67757;SDS011;54562;47.620;18.786;2023-06-01T03:05:25;6.80;;;3.10;;
67757;SDS011;54562;47.620;18.786;2023-06-01T03:08:33;6.80;;;3.10;;
67757;SDS011;54562;47.620;18.786;2023-06-01T03:11:39;8.30;;;3.40;;
67757;SDS011;54562;47.620;18.786;2023-06-01T03:14:45;7.00;;;3.40;;
67757;SDS011;54562;47.620;18.786;2023-06-01T03:17:52;8.10;;;3.40;;
67757;SDS011;54562;47.620;18.786;2023-06-01T03:20:58;6.70;;;3.20;;
67757;SDS011;54562;47.620;18.786;2023-06-01T03:24:06;7.30;;;3.30;;
67757;SDS011;54562;47.620;18.786;2023-06-01T03:27:15;8.30;;;3.30;;
67757;SDS011;54562;47.620;18.786;2023-06-01T03:30:22;9.00;;;3.20;;
67757;SDS011;54562;47.620;18.786;2023-06-01T03:33:30;9.00;;;3.50;;
67757;SDS011;54562;47.620;18.786;2023-06-01T03:36:37;7.20;;;3.30;;
67757;SDS011;54562;47.620;18.786;2023-06-01T03:39:43;10.30;;;3.30;;
67757;SDS011;54562;47.620;18.786;2023-06-01T03:42:50;7.60;;;3.20;;
67757;SDS011;54562;47.620;18.786;2023-06-01T03:45:57;8.30;;;2.90;;
67757;SDS011;54562;47.620;18.786;2023-06-01T03:49:03;9.40;;;3.20;;
67757;SDS011;54562;47.620;18.786;2023-06-01T03:52:10;9.00;;;3.20;;
67757;SDS011;54562;47.620;18.786;2023-06-01T03:55:20;8.80;;;3.30;;
67757;SDS011;54562;47.620;18.786;2023-06-01T03:58:26;8.00;;;3.40;;
67757;SDS011;54562;47.620;18.786;2023-06-01T04:01:33;6.40;;;3.10;;
67757;SDS011;54562;47.620;18.786;2023-06-01T04:04:43;8.90;;;3.10;;
67757;SDS011;54562;47.620;18.786;2023-06-01T04:07:51;8.00;;;3.10;;
67757;SDS011;54562;47.620;18.786;2023-06-01T04:10:58;7.10;;;3.10;;
67757;SDS011;54562;47.620;18.786;2023-06-01T04:14:05;9.60;;;3.10;;
67757;SDS011;54562;47.620;18.786;2023-06-01T04:17:18;9.70;;;3.10;;
67757;SDS011;54562;47.620;18.786;2023-06-01T04:20:24;8.80;;;3.20;;
67757;SDS011;54562;47.620;18.786;2023-06-01T04:23:30;8.30;;;3.30;;
67757;SDS011;54562;47.620;18.786;2023-06-01T04:26:38;7.70;;;3.10;;
67757;SDS011;54562;47.620;18.786;2023-06-01T04:29:44;6.50;;;2.80;;
67757;SDS011;54562;47.620;18.786;2023-06-01T04:32:51;7.10;;;2.90;;
67757;SDS011;54562;47.620;18.786;2023-06-01T04:35:58;8.00;;;3.30;;
67757;SDS011;54562;47.620;18.786;2023-06-01T04:39:04;8.90;;;3.00;;
67757;SDS011;54562;47.620;18.786;2023-06-01T04:42:11;7.50;;;3.10;;
67757;SDS011;54562;47.620;18.786;2023-06-01T04:45:17;7.90;;;2.90;;
67757;SDS011;54562;47.620;18.786;2023-06-01T04:48:23;7.80;;;3.40;;
67757;SDS011;54562;47.620;18.786;2023-06-01T04:51:34;9.50;;;3.20;;
67757;SDS011;54562;47.620;18.786;2023-06-01T04:54:41;6.70;;;2.90;;
67757;SDS011;54562;47.620;18.786;2023-06-01T04:57:47;6.00;;;3.10;;
67757;SDS011;54562;47.620;18.786;2023-06-01T05:00:53;6.30;;;3.20;;
67757;SDS011;54562;47.620;18.786;2023-06-01T05:04:00;10.40;;;3.30;;
67757;SDS011;54562;47.620;18.786;2023-06-01T05:07:06;6.00;;;2.80;;
67757;SDS011;54562;47.620;18.786;2023-06-01T05:10:13;7.90;;;3.30;;
67757;SDS011;54562;47.620;18.786;2023-06-01T05:13:20;8.80;;;3.30;;
67757;SDS011;54562;47.620;18.786;2023-06-01T05:16:26;6.80;;;3.10;;
67757;SDS011;54562;47.620;18.786;2023-06-01T05:19:33;7.40;;;3.10;;
67757;SDS011;54562;47.620;18.786;2023-06-01T05:22:39;7.40;;;3.10;;
67757;SDS011;54562;47.620;18.786;2023-06-01T05:25:45;6.60;;;3.30;;
67757;SDS011;54562;47.620;18.786;2023-06-01T05:28:52;9.50;;;3.60;;
67757;SDS011;54562;47.620;18.786;2023-06-01T05:31:58;6.90;;;3.20;;
67757;SDS011;54562;47.620;18.786;2023-06-01T05:35:05;6.90;;;3.40;;
67757;SDS011;54562;47.620;18.786;2023-06-01T05:38:12;7.30;;;2.90;;
67757;SDS011;54562;47.620;18.786;2023-06-01T05:41:19;7.60;;;3.10;;
67757;SDS011;54562;47.620;18.786;2023-06-01T05:44:25;7.00;;;3.10;;
67757;SDS011;54562;47.620;18.786;2023-06-01T05:47:32;6.90;;;3.10;;
67757;SDS011;54562;47.620;18.786;2023-06-01T05:50:39;6.90;;;3.30;;
67757;SDS011;54562;47.620;18.786;2023-06-01T05:53:45;8.90;;;3.40;;
67757;SDS011;54562;47.620;18.786;2023-06-01T05:56:51;8.10;;;3.20;;
67757;SDS011;54562;47.620;18.786;2023-06-01T05:59:58;8.80;;;3.20;;
67757;SDS011;54562;47.620;18.786;2023-06-01T06:03:11;7.80;;;3.30;;
67757;SDS011;54562;47.620;18.786;2023-06-01T06:06:18;7.80;;;3.40;;
67757;SDS011;54562;47.620;18.786;2023-06-01T06:09:27;7.60;;;3.60;;
67757;SDS011;54562;47.620;18.786;2023-06-01T06:12:33;7.60;;;3.20;;
67757;SDS011;54562;47.620;18.786;2023-06-01T06:15:39;8.20;;;3.70;;
67757;SDS011;54562;47.620;18.786;2023-06-01T06:18:46;7.20;;;3.50;;
67757;SDS011;54562;47.620;18.786;2023-06-01T06:21:53;10.00;;;3.60;;
67757;SDS011;54562;47.620;18.786;2023-06-01T06:24:59;10.00;;;3.50;;
67757;SDS011;54562;47.620;18.786;2023-06-01T06:28:06;10.70;;;3.20;;
67757;SDS011;54562;47.620;18.786;2023-06-01T06:31:13;9.00;;;3.40;;
67757;SDS011;54562;47.620;18.786;2023-06-01T06:34:19;7.10;;;3.20;;
67757;SDS011;54562;47.620;18.786;2023-06-01T06:37:26;8.90;;;3.20;;
67757;SDS011;54562;47.620;18.786;2023-06-01T06:40:32;8.90;;;3.60;;
67757;SDS011;54562;47.620;18.786;2023-06-01T06:43:40;7.50;;;3.30;;
67757;SDS011;54562;47.620;18.786;2023-06-01T06:46:47;9.00;;;3.40;;
67757;SDS011;54562;47.620;18.786;2023-06-01T06:49:53;7.80;;;3.20;;
67757;SDS011;54562;47.620;18.786;2023-06-01T06:53:00;8.20;;;3.20;;
67757;SDS011;54562;47.620;18.786;2023-06-01T06:56:07;8.50;;;3.30;;
67757;SDS011;54562;47.620;18.786;2023-06-01T06:59:13;10.30;;;3.40;;
67757;SDS011;54562;47.620;18.786;2023-06-01T07:02:20;7.00;;;3.30;;
67757;SDS011;54562;47.620;18.786;2023-06-01T07:05:26;8.60;;;3.40;;
67757;SDS011;54562;47.620;18.786;2023-06-01T07:08:32;8.40;;;3.50;;
67757;SDS011;54562;47.620;18.786;2023-06-01T07:11:39;11.60;;;4.90;;
67757;SDS011;54562;47.620;18.786;2023-06-01T07:14:48;20.00;;;5.80;;
67757;SDS011;54562;47.620;18.786;2023-06-01T07:17:55;11.10;;;4.10;;
67757;SDS011;54562;47.620;18.786;2023-06-01T07:21:02;12.30;;;4.90;;
67757;SDS011;54562;47.620;18.786;2023-06-01T07:24:09;7.80;;;3.30;;
67757;SDS011;54562;47.620;18.786;2023-06-01T07:27:16;13.70;;;3.90;;
67757;SDS011;54562;47.620;18.786;2023-06-01T07:30:24;7.10;;;3.20;;
67757;SDS011;54562;47.620;18.786;2023-06-01T07:33:30;7.90;;;3.40;;
67757;SDS011;54562;47.620;18.786;2023-06-01T07:36:39;7.70;;;3.20;;
67757;SDS011;54562;47.620;18.786;2023-06-01T07:39:48;7.30;;;3.20;;
67757;SDS011;54562;47.620;18.786;2023-06-01T07:42:55;12.30;;;3.30;;
67757;SDS011;54562;47.620;18.786;2023-06-01T07:46:01;11.30;;;3.40;;
67757;SDS011;54562;47.620;18.786;2023-06-01T07:49:07;8.40;;;3.10;;
67757;SDS011;54562;47.620;18.786;2023-06-01T07:52:18;10.40;;;3.60;;
67757;SDS011;54562;47.620;18.786;2023-06-01T07:55:24;10.10;;;3.50;;
67757;SDS011;54562;47.620;18.786;2023-06-01T07:58:31;7.30;;;2.90;;
67757;SDS011;54562;47.620;18.786;2023-06-01T08:01:37;7.40;;;3.10;;
67757;SDS011;54562;47.620;18.786;2023-06-01T08:04:44;9.10;;;3.20;;
67757;SDS011;54562;47.620;18.786;2023-06-01T08:07:50;8.30;;;3.10;;
67757;SDS011;54562;47.620;18.786;2023-06-01T08:10:56;8.10;;;3.00;;
67757;SDS011;54562;47.620;18.786;2023-06-01T08:14:03;7.20;;;3.30;;
67757;SDS011;54562;47.620;18.786;2023-06-01T08:17:11;9.90;;;3.20;;
67757;SDS011;54562;47.620;18.786;2023-06-01T08:20:18;8.90;;;3.10;;
67757;SDS011;54562;47.620;18.786;2023-06-01T08:23:26;6.90;;;3.10;;
67757;SDS011;54562;47.620;18.786;2023-06-01T08:26:32;8.00;;;3.40;;
67757;SDS011;54562;47.620;18.786;2023-06-01T08:29:39;7.40;;;3.20;;
67757;SDS011;54562;47.620;18.786;2023-06-01T08:32:45;8.30;;;3.40;;
67757;SDS011;54562;47.620;18.786;2023-06-01T08:35:53;7.60;;;3.10;;
67757;SDS011;54562;47.620;18.786;2023-06-01T08:38:59;7.40;;;3.20;;
67757;SDS011;54562;47.620;18.786;2023-06-01T08:42:13;9.20;;;3.30;;
67757;SDS011;54562;47.620;18.786;2023-06-01T08:45:25;6.90;;;3.40;;
67757;SDS011;54562;47.620;18.786;2023-06-01T08:48:32;8.10;;;3.30;;
67757;SDS011;54562;47.620;18.786;2023-06-01T08:51:39;8.80;;;3.60;;
67757;SDS011;54562;47.620;18.786;2023-06-01T08:54:47;9.00;;;3.50;;
67757;SDS011;54562;47.620;18.786;2023-06-01T08:57:54;8.20;;;3.50;;
67757;SDS011;54562;47.620;18.786;2023-06-01T09:01:00;10.00;;;3.40;;
67757;SDS011;54562;47.620;18.786;2023-06-01T09:04:06;8.10;;;3.30;;
67757;SDS011;54562;47.620;18.786;2023-06-01T09:07:14;10.70;;;3.40;;
67757;SDS011;54562;47.620;18.786;2023-06-01T09:10:23;8.40;;;3.50;;
67757;SDS011;54562;47.620;18.786;2023-06-01T09:13:34;8.00;;;3.70;;
67757;SDS011;54562;47.620;18.786;2023-06-01T09:16:41;8.10;;;3.20;;
67757;SDS011;54562;47.620;18.786;2023-06-01T09:19:49;8.60;;;3.80;;
67757;SDS011;54562;47.620;18.786;2023-06-01T09:22:57;7.70;;;3.40;;
67757;SDS011;54562;47.620;18.786;2023-06-01T09:26:07;12.00;;;4.20;;
67757;SDS011;54562;47.620;18.786;2023-06-01T09:29:14;10.20;;;3.70;;
67757;SDS011;54562;47.620;18.786;2023-06-01T09:32:21;8.90;;;3.60;;
67757;SDS011;54562;47.620;18.786;2023-06-01T09:35:38;8.70;;;3.40;;
67757;SDS011;54562;47.620;18.786;2023-06-01T09:38:44;9.20;;;3.70;;
67757;SDS011;54562;47.620;18.786;2023-06-01T09:41:52;11.20;;;3.60;;
67757;SDS011;54562;47.620;18.786;2023-06-01T09:45:06;8.00;;;3.70;;
67757;SDS011;54562;47.620;18.786;2023-06-01T09:48:20;9.70;;;3.90;;
67757;SDS011;54562;47.620;18.786;2023-06-01T09:51:27;7.50;;;3.50;;
67757;SDS011;54562;47.620;18.786;2023-06-01T09:54:35;10.70;;;4.20;;
67757;SDS011;54562;47.620;18.786;2023-06-01T09:57:43;8.00;;;3.80;;
67757;SDS011;54562;47.620;18.786;2023-06-01T10:00:49;8.30;;;3.90;;
67757;SDS011;54562;47.620;18.786;2023-06-01T10:03:56;11.00;;;4.20;;
67757;SDS011;54562;47.620;18.786;2023-06-01T10:07:06;8.40;;;4.00;;
67757;SDS011;54562;47.620;18.786;2023-06-01T10:10:14;8.50;;;4.00;;
67757;SDS011;54562;47.620;18.786;2023-06-01T10:13:20;8.40;;;3.70;;
67757;SDS011;54562;47.620;18.786;2023-06-01T10:16:28;9.10;;;4.00;;
67757;SDS011;54562;47.620;18.786;2023-06-01T10:19:36;9.70;;;4.30;;
67757;SDS011;54562;47.620;18.786;2023-06-01T10:22:43;10.50;;;4.10;;
67757;SDS011;54562;47.620;18.786;2023-06-01T10:25:49;8.90;;;4.10;;
67757;SDS011;54562;47.620;18.786;2023-06-01T10:28:58;8.30;;;3.90;;
67757;SDS011;54562;47.620;18.786;2023-06-01T10:32:05;8.90;;;4.10;;
67757;SDS011;54562;47.620;18.786;2023-06-01T10:35:52;7.70;;;4.30;;
67757;SDS011;54562;47.620;18.786;2023-06-01T10:42:37;9.10;;;3.90;;
67757;SDS011;54562;47.620;18.786;2023-06-01T10:45:43;8.70;;;4.00;;
67757;SDS011;54562;47.620;18.786;2023-06-01T10:48:53;7.70;;;4.20;;
67757;SDS011;54562;47.620;18.786;2023-06-01T10:55:30;9.50;;;3.90;;
67757;SDS011;54562;47.620;18.786;2023-06-01T10:58:37;9.90;;;4.10;;
67757;SDS011;54562;47.620;18.786;2023-06-01T11:01:44;8.00;;;4.20;;
67757;SDS011;54562;47.620;18.786;2023-06-01T11:04:51;9.00;;;4.30;;
67757;SDS011;54562;47.620;18.786;2023-06-01T11:07:59;9.50;;;4.30;;
67757;SDS011;54562;47.620;18.786;2023-06-01T11:11:05;8.10;;;4.10;;
67757;SDS011;54562;47.620;18.786;2023-06-01T11:14:12;7.70;;;4.30;;
67757;SDS011;54562;47.620;18.786;2023-06-01T11:17:25;10.30;;;4.30;;
67757;SDS011;54562;47.620;18.786;2023-06-01T11:20:38;9.20;;;4.40;;
67757;SDS011;54562;47.620;18.786;2023-06-01T11:23:45;7.10;;;3.90;;
67757;SDS011;54562;47.620;18.786;2023-06-01T11:26:52;10.10;;;4.10;;
67757;SDS011;54562;47.620;18.786;2023-06-01T11:29:58;13.00;;;4.30;;
67757;SDS011;54562;47.620;18.786;2023-06-01T11:33:05;8.20;;;4.40;;
67757;SDS011;54562;47.620;18.786;2023-06-01T11:36:12;8.20;;;4.00;;
67757;SDS011;54562;47.620;18.786;2023-06-01T11:39:20;7.70;;;3.80;;
67757;SDS011;54562;47.620;18.786;2023-06-01T11:42:33;10.00;;;4.20;;
67757;SDS011;54562;47.620;18.786;2023-06-01T11:45:40;8.50;;;4.00;;
67757;SDS011;54562;47.620;18.786;2023-06-01T11:48:58;8.10;;;4.00;;
67757;SDS011;54562;47.620;18.786;2023-06-01T11:52:08;8.90;;;4.10;;
67757;SDS011;54562;47.620;18.786;2023-06-01T11:55:15;8.50;;;4.00;;
67757;SDS011;54562;47.620;18.786;2023-06-01T11:58:23;7.60;;;4.20;;
67757;SDS011;54562;47.620;18.786;2023-06-01T12:01:29;7.10;;;3.90;;
67757;SDS011;54562;47.620;18.786;2023-06-01T12:04:36;9.50;;;4.10;;
67757;SDS011;54562;47.620;18.786;2023-06-01T12:07:46;8.90;;;4.30;;
67757;SDS011;54562;47.620;18.786;2023-06-01T12:10:54;9.20;;;4.20;;
67757;SDS011;54562;47.620;18.786;2023-06-01T12:14:01;8.20;;;4.10;;
67757;SDS011;54562;47.620;18.786;2023-06-01T12:17:10;11.10;;;4.00;;
67757;SDS011;54562;47.620;18.786;2023-06-01T12:20:26;11.20;;;4.20;;
67757;SDS011;54562;47.620;18.786;2023-06-01T12:23:34;7.60;;;3.90;;
67757;SDS011;54562;47.620;18.786;2023-06-01T12:26:40;8.00;;;4.30;;
67757;SDS011;54562;47.620;18.786;2023-06-01T12:29:47;9.60;;;4.20;;
67757;SDS011;54562;47.620;18.786;2023-06-01T12:32:56;7.90;;;4.10;;
67757;SDS011;54562;47.620;18.786;2023-06-01T12:36:03;9.10;;;4.00;;
67757;SDS011;54562;47.620;18.786;2023-06-01T12:39:11;9.80;;;4.00;;
67757;SDS011;54562;47.620;18.786;2023-06-01T12:42:19;9.10;;;4.00;;
67757;SDS011;54562;47.620;18.786;2023-06-01T12:45:35;8.80;;;3.90;;
67757;SDS011;54562;47.620;18.786;2023-06-01T12:48:43;8.00;;;3.90;;
67757;SDS011;54562;47.620;18.786;2023-06-01T12:51:50;8.00;;;4.20;;
67757;SDS011;54562;47.620;18.786;2023-06-01T12:54:56;9.30;;;4.20;;
67757;SDS011;54562;47.620;18.786;2023-06-01T12:58:03;8.80;;;4.40;;
67757;SDS011;54562;47.620;18.786;2023-06-01T13:01:11;13.40;;;4.50;;
67757;SDS011;54562;47.620;18.786;2023-06-01T13:04:17;7.80;;;4.00;;
67757;SDS011;54562;47.620;18.786;2023-06-01T13:07:24;7.40;;;4.20;;
67757;SDS011;54562;47.620;18.786;2023-06-01T13:10:31;14.30;;;4.50;;
67757;SDS011;54562;47.620;18.786;2023-06-01T13:13:37;9.40;;;4.50;;
67757;SDS011;54562;47.620;18.786;2023-06-01T13:16:47;8.60;;;4.40;;
67757;SDS011;54562;47.620;18.786;2023-06-01T13:19:54;8.40;;;4.50;;
67757;SDS011;54562;47.620;18.786;2023-06-01T13:23:00;7.30;;;4.30;;
67757;SDS011;54562;47.620;18.786;2023-06-01T13:26:07;7.50;;;4.20;;
67757;SDS011;54562;47.620;18.786;2023-06-01T13:29:13;12.10;;;4.70;;
67757;SDS011;54562;47.620;18.786;2023-06-01T13:32:21;8.50;;;4.30;;
67757;SDS011;54562;47.620;18.786;2023-06-01T13:35:27;13.70;;;4.90;;
67757;SDS011;54562;47.620;18.786;2023-06-01T13:38:33;9.60;;;4.60;;
67757;SDS011;54562;47.620;18.786;2023-06-01T13:41:39;14.30;;;4.80;;
67757;SDS011;54562;47.620;18.786;2023-06-01T13:44:46;9.60;;;4.50;;
67757;SDS011;54562;47.620;18.786;2023-06-01T13:47:53;7.90;;;4.20;;
67757;SDS011;54562;47.620;18.786;2023-06-01T13:50:59;9.10;;;4.60;;
67757;SDS011;54562;47.620;18.786;2023-06-01T13:54:06;9.30;;;4.30;;
67757;SDS011;54562;47.620;18.786;2023-06-01T13:57:14;7.70;;;4.30;;
67757;SDS011;54562;47.620;18.786;2023-06-01T14:00:20;7.80;;;3.90;;
67757;SDS011;54562;47.620;18.786;2023-06-01T14:03:27;8.30;;;4.60;;
67757;SDS011;54562;47.620;18.786;2023-06-01T14:06:34;8.50;;;4.00;;
67757;SDS011;54562;47.620;18.786;2023-06-01T14:09:41;9.90;;;4.50;;
67757;SDS011;54562;47.620;18.786;2023-06-01T14:12:47;10.20;;;4.30;;
67757;SDS011;54562;47.620;18.786;2023-06-01T14:15:54;9.30;;;4.30;;
67757;SDS011;54562;47.620;18.786;2023-06-01T14:19:00;7.20;;;4.20;;
67757;SDS011;54562;47.620;18.786;2023-06-01T14:22:07;9.60;;;4.40;;
67757;SDS011;54562;47.620;18.786;2023-06-01T14:25:14;8.90;;;4.20;;
67757;SDS011;54562;47.620;18.786;2023-06-01T14:28:20;7.20;;;4.50;;
67757;SDS011;54562;47.620;18.786;2023-06-01T14:31:26;11.70;;;4.40;;
67757;SDS011;54562;47.620;18.786;2023-06-01T14:34:33;8.80;;;4.10;;
67757;SDS011;54562;47.620;18.786;2023-06-01T14:37:39;8.60;;;4.50;;
67757;SDS011;54562;47.620;18.786;2023-06-01T14:40:52;7.90;;;4.20;;
67757;SDS011;54562;47.620;18.786;2023-06-01T14:43:59;7.60;;;4.30;;
67757;SDS011;54562;47.620;18.786;2023-06-01T14:47:05;7.90;;;4.10;;
67757;SDS011;54562;47.620;18.786;2023-06-01T14:53:19;10.90;;;4.60;;
67757;SDS011;54562;47.620;18.786;2023-06-01T14:56:25;7.40;;;4.40;;
67757;SDS011;54562;47.620;18.786;2023-06-01T14:59:31;7.30;;;4.30;;
67757;SDS011;54562;47.620;18.786;2023-06-01T15:02:43;7.50;;;4.10;;
67757;SDS011;54562;47.620;18.786;2023-06-01T15:05:52;8.00;;;4.00;;
67757;SDS011;54562;47.620;18.786;2023-06-01T15:08:58;7.70;;;4.40;;
67757;SDS011;54562;47.620;18.786;2023-06-01T15:12:05;9.30;;;4.70;;
67757;SDS011;54562;47.620;18.786;2023-06-01T15:15:13;7.20;;;4.20;;
67757;SDS011;54562;47.620;18.786;2023-06-01T15:18:20;9.70;;;4.60;;
67757;SDS011;54562;47.620;18.786;2023-06-01T15:21:26;9.00;;;4.60;;
67757;SDS011;54562;47.620;18.786;2023-06-01T15:24:34;9.00;;;4.50;;
67757;SDS011;54562;47.620;18.786;2023-06-01T15:27:40;8.30;;;4.30;;
67757;SDS011;54562;47.620;18.786;2023-06-01T15:30:47;9.20;;;4.20;;
67757;SDS011;54562;47.620;18.786;2023-06-01T15:33:53;9.00;;;4.40;;
67757;SDS011;54562;47.620;18.786;2023-06-01T15:37:00;8.10;;;4.30;;
67757;SDS011;54562;47.620;18.786;2023-06-01T15:40:11;8.80;;;4.40;;
67757;SDS011;54562;47.620;18.786;2023-06-01T15:43:18;10.20;;;4.50;;
67757;SDS011;54562;47.620;18.786;2023-06-01T15:46:24;15.70;;;4.90;;
67757;SDS011;54562;47.620;18.786;2023-06-01T15:49:31;8.20;;;4.60;;
67757;SDS011;54562;47.620;18.786;2023-06-01T15:52:37;14.10;;;4.70;;
67757;SDS011;54562;47.620;18.786;2023-06-01T15:55:44;14.00;;;4.70;;
67757;SDS011;54562;47.620;18.786;2023-06-01T15:58:50;16.10;;;5.10;;
67757;SDS011;54562;47.620;18.786;2023-06-01T16:01:56;8.30;;;5.00;;
67757;SDS011;54562;47.620;18.786;2023-06-01T16:05:04;12.10;;;4.70;;
67757;SDS011;54562;47.620;18.786;2023-06-01T16:08:12;9.70;;;4.60;;
67757;SDS011;54562;47.620;18.786;2023-06-01T16:11:19;8.40;;;4.50;;
67757;SDS011;54562;47.620;18.786;2023-06-01T16:14:25;8.60;;;4.40;;
67757;SDS011;54562;47.620;18.786;2023-06-01T16:17:31;14.20;;;4.70;;
67757;SDS011;54562;47.620;18.786;2023-06-01T16:20:38;8.90;;;4.50;;
67757;SDS011;54562;47.620;18.786;2023-06-01T16:23:44;9.80;;;4.60;;
67757;SDS011;54562;47.620;18.786;2023-06-01T16:26:51;9.90;;;4.70;;
67757;SDS011;54562;47.620;18.786;2023-06-01T16:29:57;8.00;;;4.20;;
67757;SDS011;54562;47.620;18.786;2023-06-01T16:33:05;11.30;;;4.80;;
67757;SDS011;54562;47.620;18.786;2023-06-01T16:36:14;8.90;;;4.60;;
67757;SDS011;54562;47.620;18.786;2023-06-01T16:39:20;9.80;;;4.30;;
67757;SDS011;54562;47.620;18.786;2023-06-01T16:42:27;10.10;;;5.20;;
67757;SDS011;54562;47.620;18.786;2023-06-01T16:45:33;9.90;;;4.50;;
67757;SDS011;54562;47.620;18.786;2023-06-01T16:48:40;9.80;;;4.40;;
67757;SDS011;54562;47.620;18.786;2023-06-01T16:51:46;10.30;;;4.70;;
67757;SDS011;54562;47.620;18.786;2023-06-01T16:54:52;8.60;;;4.70;;
67757;SDS011;54562;47.620;18.786;2023-06-01T16:57:59;9.10;;;4.70;;
67757;SDS011;54562;47.620;18.786;2023-06-01T17:01:05;9.40;;;4.50;;
67757;SDS011;54562;47.620;18.786;2023-06-01T17:04:12;7.70;;;4.50;;
67757;SDS011;54562;47.620;18.786;2023-06-01T17:07:19;11.40;;;4.90;;
67757;SDS011;54562;47.620;18.786;2023-06-01T17:10:25;13.40;;;5.10;;
67757;SDS011;54562;47.620;18.786;2023-06-01T17:13:31;9.00;;;5.20;;
67757;SDS011;54562;47.620;18.786;2023-06-01T17:16:37;9.00;;;4.80;;
67757;SDS011;54562;47.620;18.786;2023-06-01T17:19:44;9.10;;;5.00;;
67757;SDS011;54562;47.620;18.786;2023-06-01T17:22:50;8.90;;;5.10;;
67757;SDS011;54562;47.620;18.786;2023-06-01T17:25:56;11.20;;;5.20;;
67757;SDS011;54562;47.620;18.786;2023-06-01T17:29:03;14.20;;;4.80;;
67757;SDS011;54562;47.620;18.786;2023-06-01T17:32:10;8.40;;;4.50;;
67757;SDS011;54562;47.620;18.786;2023-06-01T17:35:16;9.60;;;4.90;;
67757;SDS011;54562;47.620;18.786;2023-06-01T17:38:23;12.60;;;5.00;;
67757;SDS011;54562;47.620;18.786;2023-06-01T17:41:29;11.50;;;5.20;;
67757;SDS011;54562;47.620;18.786;2023-06-01T17:44:35;11.70;;;4.80;;
67757;SDS011;54562;47.620;18.786;2023-06-01T17:47:41;9.30;;;4.70;;
67757;SDS011;54562;47.620;18.786;2023-06-01T17:50:48;9.60;;;4.90;;
67757;SDS011;54562;47.620;18.786;2023-06-01T17:53:56;9.00;;;4.90;;
67757;SDS011;54562;47.620;18.786;2023-06-01T17:57:03;17.20;;;5.10;;
67757;SDS011;54562;47.620;18.786;2023-06-01T18:00:11;10.90;;;5.20;;
67757;SDS011;54562;47.620;18.786;2023-06-01T18:03:18;8.30;;;4.70;;
67757;SDS011;54562;47.620;18.786;2023-06-01T18:06:25;12.30;;;5.30;;
67757;SDS011;54562;47.620;18.786;2023-06-01T18:09:31;8.30;;;4.90;;
67757;SDS011;54562;47.620;18.786;2023-06-01T18:12:38;9.30;;;4.90;;
67757;SDS011;54562;47.620;18.786;2023-06-01T18:15:45;10.50;;;5.00;;
67757;SDS011;54562;47.620;18.786;2023-06-01T18:18:51;8.50;;;4.60;;
67757;SDS011;54562;47.620;18.786;2023-06-01T18:21:58;8.80;;;4.80;;
67757;SDS011;54562;47.620;18.786;2023-06-01T18:25:04;10.80;;;5.20;;
67757;SDS011;54562;47.620;18.786;2023-06-01T18:28:12;9.00;;;5.40;;
67757;SDS011;54562;47.620;18.786;2023-06-01T18:31:18;11.30;;;5.50;;
67757;SDS011;54562;47.620;18.786;2023-06-01T18:34:24;12.00;;;5.70;;
67757;SDS011;54562;47.620;18.786;2023-06-01T18:37:31;10.30;;;5.40;;